createdAt,value
2018-01-08T11:14:52.447Z,315.00
2018-01-08T11:15:52.391Z,326.25
2018-01-08T11:17:45.716Z,348.75
2018-01-08T11:18:45.675Z,354.38
2018-01-08T11:19:45.646Z,354.38
2018-01-08T11:20:45.615Z,354.38
2018-01-08T11:21:45.581Z,360.00
2018-01-08T11:22:46.222Z,360.00
2018-01-08T11:23:45.529Z,360.00
2018-01-08T11:24:45.507Z,360.00
2018-01-08T11:25:45.462Z,337.50
2018-01-08T11:26:45.438Z,343.13
2018-01-08T11:27:45.407Z,348.75
2018-01-08T11:28:45.394Z,343.13
2018-01-08T11:29:45.352Z,348.75
2018-01-08T11:30:45.318Z,360.00
2018-01-08T11:31:45.306Z,365.63
2018-01-08T11:32:45.259Z,371.25
2018-01-08T11:33:45.234Z,360.00
2018-01-08T11:34:45.201Z,365.63
2018-01-08T11:35:45.165Z,376.88
2018-01-08T11:36:45.146Z,382.50
2018-01-08T11:37:45.109Z,388.13
2018-01-08T11:38:45.078Z,393.75
2018-01-08T11:39:45.050Z,399.38
2018-01-08T11:40:45.019Z,399.38
2018-01-08T11:41:44.995Z,399.38
2018-01-08T11:42:44.979Z,399.38
2018-01-08T11:43:44.932Z,399.38
2018-01-08T11:44:44.904Z,399.38
2018-01-08T11:45:44.892Z,388.13
2018-01-08T11:46:44.850Z,382.50
2018-01-08T11:47:44.821Z,382.50
2018-01-08T11:48:44.786Z,388.13
2018-01-08T11:49:51.290Z,388.13
2018-01-08T11:50:44.735Z,388.13
2018-01-08T11:51:44.698Z,382.50
2018-01-08T11:52:51.480Z,388.13
2018-01-08T11:53:44.633Z,382.50
2018-01-08T11:54:44.604Z,371.25
2018-01-08T11:55:44.575Z,365.63
2018-01-08T11:56:44.548Z,365.63
2018-01-08T11:57:44.513Z,376.88
2018-01-08T11:58:44.494Z,393.75
2018-01-08T11:59:44.476Z,410.63
2018-01-08T12:00:44.442Z,427.50
2018-01-08T12:01:44.404Z,444.38
2018-01-08T12:02:44.380Z,472.50
2018-01-08T12:03:44.354Z,500.63
2018-01-08T12:04:44.320Z,517.50
2018-01-08T12:05:44.281Z,523.13
2018-01-08T12:06:44.262Z,528.75
2018-01-08T12:07:44.238Z,540.00
2018-01-08T12:08:44.210Z,551.25
2018-01-08T12:09:44.171Z,562.50
2018-01-08T12:10:44.332Z,568.13
2018-01-08T12:11:44.113Z,540.00
2018-01-08T12:12:44.087Z,523.13
2018-01-08T12:13:44.054Z,500.63
2018-01-08T12:14:44.026Z,489.38
2018-01-08T12:15:43.995Z,461.25
2018-01-08T12:16:43.968Z,433.13
2018-01-08T12:17:43.936Z,405.00
2018-01-08T12:18:43.912Z,388.13
2018-01-08T12:19:43.909Z,393.75
2018-01-08T12:20:43.866Z,399.38
2018-01-08T12:21:43.830Z,393.75
2018-01-08T12:22:43.816Z,388.13
2018-01-08T12:23:43.784Z,399.38
2018-01-08T12:24:43.747Z,421.88
2018-01-08T12:25:43.740Z,433.13
2018-01-08T12:26:43.870Z,444.38
2018-01-08T12:27:43.668Z,478.13
2018-01-08T12:28:43.648Z,523.13
2018-01-08T12:29:43.604Z,630.00
2018-01-08T12:30:43.573Z,742.50
2018-01-08T12:31:43.553Z,1018.13
2018-01-08T12:32:43.520Z,1243.13
2018-01-08T12:33:43.494Z,1468.13
2018-01-08T12:34:43.463Z,1530.00
2018-01-08T12:35:43.439Z,1434.38
2018-01-08T12:36:43.410Z,1248.75
2018-01-08T12:37:43.374Z,939.38
2018-01-08T12:38:43.347Z,759.38
2018-01-08T12:39:43.338Z,703.13
2018-01-08T12:40:43.297Z,708.75
2018-01-08T12:41:43.266Z,691.88
2018-01-08T12:42:43.248Z,691.88
2018-01-08T12:43:43.205Z,601.88
2018-01-08T12:44:43.180Z,540.00
2018-01-08T12:45:43.154Z,534.38
2018-01-08T12:46:43.128Z,556.88
2018-01-08T12:47:43.100Z,573.75
2018-01-08T12:48:43.065Z,635.63
2018-01-08T12:49:43.030Z,714.38
2018-01-08T12:50:43.019Z,742.50
2018-01-08T12:51:42.995Z,753.75
2018-01-08T12:52:42.953Z,871.88
2018-01-08T12:53:42.961Z,1040.63
2018-01-08T12:54:43.795Z,1125.00
2018-01-08T12:55:43.801Z,1243.13
2018-01-08T12:56:42.871Z,1248.75
2018-01-08T12:57:42.964Z,1198.13
2018-01-08T12:58:42.787Z,1203.75
2018-01-08T12:59:42.751Z,1203.75
2018-01-08T13:00:42.721Z,1113.75
2018-01-08T13:01:42.716Z,1057.50
2018-01-08T13:02:42.681Z,1046.25
2018-01-08T13:03:43.302Z,1035.00
2018-01-08T13:04:42.614Z,1023.75
2018-01-08T13:05:42.584Z,995.63
2018-01-08T13:06:42.550Z,995.63
2018-01-08T13:07:43.302Z,1001.25
2018-01-08T13:08:42.524Z,995.63
2018-01-08T13:09:43.314Z,1006.88
2018-01-08T13:10:42.440Z,1018.13
2018-01-08T13:11:42.423Z,1102.50
2018-01-08T13:12:42.395Z,1237.50
2018-01-08T13:13:43.323Z,1226.25
2018-01-08T13:14:42.335Z,1175.63
2018-01-08T13:15:42.301Z,1186.88
2018-01-08T13:16:42.278Z,1265.63
2018-01-08T13:17:42.805Z,1282.50
2018-01-08T13:18:42.226Z,1243.13
2018-01-08T13:19:42.800Z,1254.38
2018-01-08T13:20:42.185Z,1198.13
2018-01-08T13:21:42.134Z,1316.25
2018-01-08T13:22:42.108Z,1558.13
2018-01-08T13:23:42.086Z,1541.25
2018-01-08T13:24:42.055Z,1496.25
2018-01-08T13:25:42.025Z,1395.00
2018-01-08T13:26:41.997Z,1383.75
2018-01-08T13:27:41.980Z,1760.63
2018-01-08T13:28:41.949Z,2221.88
2018-01-08T13:29:41.931Z,2120.63
2018-01-08T13:30:41.903Z,1687.50
2018-01-08T13:31:42.074Z,1704.38
2018-01-08T13:32:41.864Z,1884.38
2018-01-08T13:33:41.821Z,1783.13
2018-01-08T13:34:41.795Z,1603.13
2018-01-08T13:35:41.771Z,1861.88
2018-01-08T13:36:41.749Z,2019.38
2018-01-08T13:37:41.714Z,1771.88
2018-01-08T13:38:41.697Z,1816.88
2018-01-08T13:39:41.661Z,1704.38
2018-01-08T13:40:41.646Z,1355.63
2018-01-08T13:41:41.622Z,1198.13
2018-01-08T13:42:41.619Z,1220.63
2018-01-08T13:43:41.577Z,1113.75
2018-01-08T13:44:41.546Z,900.00
2018-01-08T13:45:41.524Z,866.25
2018-01-08T13:46:41.496Z,866.25
2018-01-08T13:47:41.467Z,838.13
2018-01-08T13:48:41.444Z,826.88
2018-01-08T13:49:41.435Z,753.75
2018-01-08T13:50:41.394Z,680.63
2018-01-08T13:51:41.370Z,579.38
2018-01-08T13:52:41.343Z,506.25
2018-01-08T13:53:41.318Z,472.50
2018-01-08T13:54:41.329Z,450.00
2018-01-08T13:57:13.379Z,365.63
2018-01-08T13:58:13.303Z,354.38
2018-01-08T14:00:06.639Z,348.75
2018-01-08T14:01:06.641Z,360.00
2018-01-08T14:02:59.936Z,472.50
2018-01-08T14:03:59.897Z,450.00
2018-01-08T14:04:59.847Z,399.38
2018-01-08T14:06:00.425Z,371.25
2018-01-08T14:07:00.424Z,354.38
2018-01-08T14:07:59.775Z,348.75
2018-01-08T14:08:59.768Z,348.75
2018-01-08T14:09:59.714Z,348.75
2018-01-08T14:10:59.851Z,348.75
2018-01-08T14:11:59.659Z,348.75
2018-01-08T14:12:59.623Z,348.75
2018-01-08T14:13:59.601Z,354.38
2018-01-08T14:15:20.569Z,360.00
2018-01-08T14:15:59.564Z,360.00
2018-01-08T14:16:59.519Z,365.63
2018-01-08T14:17:59.491Z,365.63
2018-01-08T14:18:59.461Z,371.25
2018-01-08T14:19:59.441Z,376.88
2018-01-08T14:20:59.406Z,382.50
2018-01-08T14:21:59.614Z,388.13
2018-01-08T14:22:59.527Z,388.13
2018-01-08T14:23:59.315Z,393.75
2018-01-08T14:24:59.303Z,393.75
2018-01-08T14:25:59.259Z,393.75
2018-01-08T14:26:59.237Z,393.75
2018-01-08T14:27:59.199Z,393.75
2018-01-08T14:28:59.190Z,393.75
2018-01-08T14:29:59.145Z,393.75
2018-01-08T14:30:59.120Z,388.13
2018-01-08T14:31:59.095Z,393.75
2018-01-08T14:32:59.068Z,388.13
2018-01-08T14:33:59.035Z,388.13
2018-01-08T14:34:59.009Z,393.75
2018-01-08T14:35:58.982Z,393.75
2018-01-08T14:36:58.950Z,388.13
2018-01-08T14:37:58.925Z,382.50
2018-01-08T14:38:58.914Z,382.50
2018-01-08T14:39:58.865Z,382.50
2018-01-08T14:40:58.839Z,376.88
2018-01-08T14:41:58.841Z,376.88
2018-01-08T14:42:58.801Z,371.25
2018-01-08T14:43:58.747Z,371.25
2018-01-08T14:44:58.744Z,365.63
2018-01-08T14:45:58.698Z,360.00
2018-01-08T14:46:58.669Z,354.38
2018-01-08T14:47:58.655Z,354.38
2018-01-08T14:48:58.609Z,348.75
2018-01-08T14:49:58.590Z,343.13
2018-01-08T14:50:58.568Z,337.50
2018-01-08T14:51:58.534Z,326.25
2018-01-08T14:52:58.507Z,309.38
2018-01-08T14:53:58.472Z,298.13
2018-01-08T14:54:58.442Z,286.88
2018-01-08T14:55:58.406Z,275.63
2018-01-08T14:56:58.393Z,270.00
2018-01-08T14:57:58.413Z,264.38
2018-01-08T14:58:58.327Z,258.75
2018-01-08T14:59:58.295Z,247.50
2018-01-08T15:00:58.274Z,236.25
2018-01-08T15:01:58.243Z,225.00
2018-01-08T15:02:58.213Z,219.38
2018-01-08T15:03:58.182Z,213.75
2018-01-08T15:04:58.163Z,208.13
2018-01-08T15:05:58.130Z,196.88
2018-01-08T15:06:58.104Z,191.25
2018-01-08T15:11:02.164Z,163.13
2018-01-08T15:12:02.134Z,157.50
2018-01-08T15:13:02.095Z,151.88
2018-01-08T15:14:02.071Z,146.25
2018-01-08T15:15:02.040Z,140.63
2018-01-08T15:16:03.170Z,129.38
2018-01-08T15:17:01.988Z,123.75
2018-01-08T15:18:01.950Z,118.13
2018-01-08T15:20:48.533Z,101.25
2018-01-08T15:21:48.514Z,90.00
2018-01-08T15:23:41.781Z,84.38
2018-01-08T15:24:41.749Z,78.75
2018-01-08T15:25:41.709Z,73.13
2018-01-08T15:26:41.686Z,67.50
2018-01-08T15:27:41.857Z,61.88
2018-01-08T15:28:41.625Z,61.88
2018-01-08T15:29:41.592Z,56.25
2018-01-08T15:30:41.567Z,50.63
2018-01-08T15:31:41.551Z,50.63
2018-01-08T15:32:41.523Z,45.00
2018-01-08T15:33:41.480Z,45.00
2018-01-08T15:34:41.489Z,39.38
2018-01-08T15:35:41.421Z,39.38
2018-01-08T15:36:41.396Z,33.75
2018-01-08T15:37:41.359Z,33.75
2018-01-08T15:38:41.335Z,28.13
2018-01-08T15:39:41.300Z,28.13
2018-01-08T15:40:41.270Z,28.13
2018-01-08T15:41:41.248Z,22.50
2018-01-08T15:42:41.231Z,22.50
2018-01-08T15:43:41.184Z,22.50
2018-01-08T15:44:41.153Z,22.50
2018-01-08T15:45:41.141Z,22.50
2018-01-08T15:46:41.097Z,16.88
2018-01-08T15:47:41.066Z,16.88
2018-01-08T15:48:41.046Z,16.88
2018-01-08T15:49:41.000Z,16.88
2018-01-08T15:50:40.976Z,11.25
2018-01-08T15:51:40.944Z,11.25
2018-01-08T15:52:40.954Z,11.25
2018-01-08T15:53:40.889Z,11.25
2018-01-08T15:54:40.851Z,5.63
2018-01-08T15:55:40.821Z,5.63
2018-01-08T15:56:40.791Z,5.63
2018-01-08T15:57:40.780Z,5.63
2018-01-08T15:58:40.745Z,5.63
2018-01-08T15:59:40.711Z,5.63
2018-01-08T16:00:40.685Z,5.63
2018-01-08T16:01:40.664Z,0.00
2018-01-08T16:02:40.618Z,0.00
2018-01-08T16:03:40.601Z,0.00
2018-01-08T16:04:40.555Z,0.00
2018-01-08T16:05:40.518Z,0.00
2018-01-08T16:06:40.494Z,0.00
2018-01-08T16:07:40.478Z,0.00
2018-01-08T16:08:40.443Z,0.00
2018-01-08T16:09:40.397Z,0.00
2018-01-08T16:10:40.388Z,0.00
2018-01-08T16:11:40.343Z,0.00
2018-01-08T16:12:40.304Z,0.00
2018-01-08T16:13:40.290Z,0.00
2018-01-08T16:14:40.254Z,0.00
2018-01-08T16:15:40.228Z,0.00
2018-01-08T16:16:40.190Z,0.00
2018-01-08T16:17:40.164Z,0.00
2018-01-08T16:18:40.135Z,0.00
2018-01-08T16:19:40.095Z,0.00
2018-01-08T16:20:46.868Z,0.00
2018-01-08T16:21:40.057Z,0.00
2018-01-08T16:22:40.028Z,0.00
2018-01-08T16:23:39.971Z,0.00
2018-01-08T16:24:39.940Z,0.00
2018-01-08T16:25:39.912Z,0.00
2018-01-08T16:26:39.898Z,0.00
2018-01-08T16:27:39.852Z,0.00
2018-01-08T16:28:39.829Z,0.00
2018-01-08T16:29:39.792Z,0.00
2018-01-08T16:31:00.770Z,0.00
2018-01-08T16:31:39.738Z,0.00
2018-01-08T16:32:39.736Z,0.00
2018-01-08T16:36:43.811Z,0.00
2018-01-08T16:37:43.741Z,0.00
2018-01-08T16:38:43.716Z,0.00
2018-01-08T16:39:43.674Z,0.00
2018-01-08T16:40:43.653Z,0.00
2018-01-08T16:41:43.674Z,0.00
2018-01-08T16:42:43.590Z,0.00
2018-01-08T16:43:44.280Z,0.00
2018-01-08T16:44:43.537Z,0.00
2018-01-08T16:45:43.517Z,0.00
2018-01-08T16:46:43.465Z,0.00
2018-01-08T16:47:43.452Z,0.00
2018-01-08T16:48:43.401Z,0.00
2018-01-08T16:49:43.380Z,0.00
2018-01-08T16:50:43.340Z,0.00
2018-01-08T16:51:43.314Z,0.00
2018-01-08T16:52:43.311Z,0.00
2018-01-08T16:53:43.887Z,0.00
2018-01-08T16:54:43.218Z,0.00
2018-01-08T16:55:43.189Z,0.00
2018-01-08T16:56:43.307Z,0.00
2018-01-08T16:57:43.163Z,0.00
2018-01-08T16:58:43.100Z,0.00
2018-01-08T16:59:43.070Z,0.00
2018-01-08T17:00:43.042Z,0.00
2018-01-08T17:01:43.007Z,0.00
2018-01-08T17:02:42.982Z,0.00
2018-01-08T17:03:42.948Z,0.00
2018-01-08T17:04:42.916Z,0.00
2018-01-08T17:05:42.884Z,0.00
2018-01-08T17:06:42.860Z,0.00
2018-01-08T17:07:42.826Z,0.00
2018-01-08T17:08:42.792Z,0.00
2018-01-08T17:09:42.768Z,0.00
2018-01-08T17:10:42.734Z,0.00
2018-01-08T17:11:42.700Z,0.00
2018-01-08T17:12:42.685Z,0.00
2018-01-08T17:13:42.692Z,0.00
2018-01-08T17:14:42.620Z,0.00
2018-01-08T17:15:42.587Z,0.00
2018-01-08T17:16:42.588Z,0.00
2018-01-08T17:17:42.524Z,0.00
2018-01-08T17:18:42.513Z,0.00
2018-01-08T17:19:42.466Z,0.00
2018-01-08T17:20:42.621Z,0.00
2018-01-08T17:21:42.391Z,0.00
2018-01-08T17:22:42.363Z,0.00
2018-01-08T17:23:42.358Z,0.00
2018-01-08T17:24:42.304Z,0.00
2018-01-08T17:25:42.272Z,0.00
2018-01-08T17:26:42.265Z,0.00
2018-01-08T17:27:42.209Z,0.00
2018-01-08T17:28:42.190Z,0.00
2018-01-08T17:29:42.173Z,0.00
2018-01-08T17:30:42.117Z,0.00
2018-01-08T17:31:42.086Z,0.00
2018-01-08T17:32:42.057Z,0.00
2018-01-08T17:33:42.036Z,0.00
2018-01-08T17:34:42.007Z,0.00
2018-01-08T17:35:41.966Z,0.00
2018-01-08T17:36:41.931Z,0.00
2018-01-08T17:37:41.920Z,0.00
2018-01-08T17:38:41.867Z,0.00
2018-01-08T17:39:41.842Z,0.00
2018-01-08T17:40:41.811Z,0.00
2018-01-08T17:41:41.812Z,0.00
2018-01-08T17:42:41.748Z,0.00
2018-01-08T17:43:41.710Z,0.00
2018-01-08T17:44:41.686Z,0.00
2018-01-08T17:45:41.669Z,0.00
2018-01-08T17:46:41.623Z,0.00
2018-01-08T17:48:17.451Z,0.00
2018-01-08T17:48:41.617Z,0.00
2018-01-08T17:49:41.701Z,0.00
2018-01-08T17:50:41.554Z,0.00
2018-01-08T17:51:41.514Z,0.00
2018-01-08T17:52:41.436Z,0.00
2018-01-08T17:53:41.413Z,0.00
2018-01-08T17:54:41.377Z,0.00
2018-01-08T17:55:41.340Z,0.00
2018-01-08T17:56:41.320Z,0.00
2018-01-08T17:57:41.280Z,0.00
2018-01-08T17:58:41.252Z,0.00
2018-01-08T17:59:43.853Z,0.00
2018-01-08T18:00:42.855Z,0.00
2018-01-08T18:01:41.173Z,0.00
2018-01-08T18:02:41.132Z,0.00
2018-01-08T18:03:41.098Z,0.00
2018-01-08T18:04:41.097Z,0.00
2018-01-08T18:05:41.185Z,0.00
2018-01-08T18:06:41.217Z,0.00
2018-01-08T18:07:40.972Z,0.00
2018-01-08T18:08:40.936Z,0.00
2018-01-08T18:09:40.907Z,0.00
2018-01-08T18:10:41.120Z,0.00
2018-01-08T18:11:40.852Z,0.00
2018-01-08T18:12:41.025Z,0.00
2018-01-08T18:13:41.013Z,0.00
2018-01-08T18:14:40.757Z,0.00
2018-01-08T18:15:40.723Z,0.00
2018-01-08T18:16:41.002Z,0.00
2018-01-08T18:17:40.677Z,0.00
2018-01-08T18:18:40.637Z,0.00
2018-01-08T18:19:40.600Z,0.00
2018-01-08T18:20:40.568Z,0.00
2018-01-08T18:21:40.537Z,0.00
2018-01-08T18:22:40.512Z,0.00
2018-01-08T18:23:40.514Z,0.00
2018-01-08T18:24:40.448Z,0.00
2018-01-08T18:25:40.424Z,0.00
2018-01-08T18:26:40.387Z,0.00
2018-01-08T18:27:40.353Z,0.00
2018-01-08T18:28:40.321Z,0.00
2018-01-08T18:29:40.311Z,0.00
2018-01-08T18:30:40.265Z,0.00
2018-01-08T18:31:40.262Z,0.00
2018-01-08T18:32:40.194Z,0.00
2018-01-08T18:33:40.167Z,0.00
2018-01-08T18:34:40.136Z,0.00
2018-01-08T18:35:40.097Z,0.00
2018-01-08T18:36:40.073Z,0.00
2018-01-08T18:37:40.042Z,0.00
2018-01-08T18:38:40.009Z,0.00
2018-01-08T18:39:39.997Z,0.00
2018-01-08T18:40:39.969Z,0.00
2018-01-08T18:41:39.964Z,0.00
2018-01-08T18:42:39.888Z,0.00
2018-01-08T18:43:39.912Z,0.00
2018-01-08T18:44:39.828Z,0.00
2018-01-08T18:45:54.397Z,0.00
2018-01-08T18:46:39.768Z,0.00
2018-01-08T18:47:39.991Z,0.00
2018-01-08T18:48:39.698Z,0.00
2018-01-08T18:49:40.316Z,0.00
2018-01-08T18:50:39.631Z,0.00
2018-01-08T18:51:39.602Z,0.00
2018-01-08T18:52:39.572Z,0.00
2018-01-08T18:53:39.538Z,0.00
2018-01-08T18:54:39.516Z,0.00
2018-01-08T18:55:39.496Z,0.00
2018-01-08T18:56:39.448Z,0.00
2018-01-08T18:57:39.419Z,0.00
2018-01-08T18:58:39.393Z,0.00
2018-01-08T18:59:39.384Z,0.00
2018-01-08T19:00:39.340Z,0.00
2018-01-08T19:01:39.291Z,0.00
2018-01-08T19:02:39.278Z,0.00
2018-01-08T19:03:39.222Z,0.00
2018-01-08T19:04:39.210Z,0.00
2018-01-08T19:05:39.160Z,0.00
2018-01-08T19:06:39.140Z,0.00
2018-01-08T19:07:39.106Z,0.00
2018-01-08T19:08:39.862Z,0.00
2018-01-08T19:09:39.041Z,0.00
2018-01-08T19:10:39.007Z,0.00
2018-01-08T19:11:38.992Z,0.00
2018-01-08T19:12:39.037Z,0.00
2018-01-08T19:13:38.915Z,0.00
2018-01-08T19:14:38.884Z,0.00
2018-01-08T19:15:38.859Z,0.00
2018-01-08T19:16:38.845Z,0.00
2018-01-08T19:17:38.781Z,0.00
2018-01-08T19:18:38.808Z,0.00
2018-01-08T19:19:38.830Z,0.00
2018-01-08T19:20:38.761Z,0.00
2018-01-08T19:21:38.670Z,0.00
2018-01-08T19:22:38.706Z,0.00
2018-01-08T19:23:38.601Z,0.00
2018-01-08T19:24:38.579Z,0.00
2018-01-08T19:25:38.543Z,0.00
2018-01-08T19:26:38.531Z,0.00
2018-01-08T19:27:38.498Z,0.00
2018-01-08T19:28:38.436Z,0.00
2018-01-08T19:29:38.412Z,0.00
2018-01-08T19:30:38.389Z,0.00
2018-01-08T19:31:38.346Z,0.00
2018-01-08T19:32:38.327Z,0.00
2018-01-08T19:33:38.287Z,0.00
2018-01-08T19:34:38.258Z,0.00
2018-01-08T19:35:38.253Z,0.00
2018-01-08T19:36:38.202Z,0.00
2018-01-08T19:37:38.166Z,0.00
2018-01-08T19:38:38.138Z,0.00
2018-01-08T19:39:38.474Z,0.00
2018-01-08T19:40:38.082Z,0.00
2018-01-08T19:41:38.038Z,0.00
2018-01-08T19:42:38.032Z,0.00
2018-01-08T19:43:40.852Z,0.00
2018-01-08T19:44:37.931Z,0.00
2018-01-08T19:45:37.925Z,0.00
2018-01-08T19:46:37.872Z,0.00
2018-01-08T19:47:37.836Z,0.00
2018-01-08T19:48:37.874Z,0.00
2018-01-08T19:49:37.775Z,0.00
2018-01-08T19:50:37.743Z,0.00
2018-01-08T19:51:37.737Z,0.00
2018-01-08T19:52:37.687Z,0.00
2018-01-08T19:53:37.658Z,0.00
2018-01-08T19:54:37.625Z,0.00
2018-01-08T19:55:37.797Z,0.00
2018-01-08T19:56:37.597Z,0.00
2018-01-08T19:57:37.540Z,0.00
2018-01-08T19:58:37.612Z,0.00
2018-01-08T19:59:37.477Z,0.00
2018-01-08T20:00:37.512Z,0.00
2018-01-08T20:01:37.446Z,0.00
2018-01-08T20:02:37.661Z,0.00
2018-01-08T20:03:37.336Z,0.00
2018-01-08T20:04:37.301Z,0.00
2018-01-08T20:05:37.275Z,0.00
2018-01-08T20:06:37.265Z,0.00
2018-01-08T20:07:37.230Z,0.00
2018-01-08T20:08:37.184Z,0.00
2018-01-08T20:09:37.164Z,0.00
2018-01-08T20:10:37.153Z,0.00
2018-01-08T20:11:37.098Z,0.00
2018-01-08T20:12:37.050Z,0.00
2018-01-08T20:13:37.027Z,0.00
2018-01-08T20:14:37.002Z,0.00
2018-01-08T20:15:37.114Z,0.00
2018-01-08T20:16:37.033Z,0.00
2018-01-08T20:17:36.908Z,0.00
2018-01-08T20:18:36.862Z,0.00
2018-01-08T20:19:36.836Z,0.00
2018-01-08T20:20:36.805Z,0.00
2018-01-08T20:21:36.782Z,0.00
2018-01-08T20:22:36.747Z,0.00
2018-01-08T20:23:36.723Z,0.00
2018-01-08T20:24:36.676Z,0.00
2018-01-08T20:25:36.817Z,0.00
2018-01-08T20:26:36.610Z,0.00
2018-01-08T20:27:36.580Z,0.00
2018-01-08T20:28:36.559Z,0.00
2018-01-08T20:29:36.521Z,0.00
2018-01-08T20:30:36.510Z,0.00
2018-01-08T20:31:36.450Z,0.00
2018-01-08T20:32:36.469Z,0.00
2018-01-08T20:33:36.395Z,0.00
2018-01-08T20:34:36.370Z,0.00
2018-01-08T20:35:36.329Z,0.00
2018-01-08T20:36:36.321Z,0.00
2018-01-08T20:37:36.275Z,0.00
2018-01-08T20:38:36.233Z,0.00
2018-01-08T20:39:36.220Z,0.00
2018-01-08T20:40:36.365Z,0.00
2018-01-08T20:41:36.149Z,0.00
2018-01-08T20:42:36.155Z,0.00
2018-01-08T20:43:36.802Z,0.00
2018-01-08T20:44:36.067Z,0.00
2018-01-08T20:45:36.011Z,0.00
2018-01-08T20:46:35.977Z,0.00
2018-01-08T20:47:35.944Z,0.00
2018-01-08T20:48:47.872Z,0.00
2018-01-08T20:49:35.897Z,0.00
2018-01-08T20:50:35.857Z,0.00
2018-01-08T20:51:35.887Z,0.00
2018-01-08T20:52:35.799Z,0.00
2018-01-08T20:53:36.143Z,0.00
2018-01-08T20:54:35.773Z,0.00
2018-01-08T20:55:35.981Z,0.00
2018-01-08T20:56:35.659Z,0.00
2018-01-08T20:57:35.781Z,0.00
2018-01-08T20:58:35.592Z,0.00
2018-01-08T20:59:35.617Z,0.00
2018-01-08T21:00:35.590Z,0.00
2018-01-08T21:01:37.295Z,0.00
2018-01-08T21:02:35.581Z,0.00
2018-01-08T21:03:35.568Z,0.00
2018-01-08T21:04:35.411Z,0.00
2018-01-08T21:05:35.377Z,0.00
2018-01-08T21:06:35.540Z,0.00
2018-01-08T21:07:35.310Z,0.00
2018-01-08T21:08:35.396Z,0.00
2018-01-08T21:09:35.264Z,0.00
2018-01-08T21:10:35.253Z,0.00
2018-01-08T21:11:35.283Z,0.00
2018-01-08T21:12:35.350Z,0.00
2018-01-08T21:13:35.115Z,0.00
2018-01-08T21:14:35.358Z,0.00
2018-01-08T21:15:35.369Z,0.00
2018-01-08T21:16:35.027Z,0.00
2018-01-08T21:17:35.132Z,0.00
2018-01-08T21:18:35.001Z,0.00
2018-01-08T21:19:34.926Z,0.00
2018-01-08T21:20:34.900Z,0.00
2018-01-08T21:21:34.895Z,0.00
2018-01-08T21:22:34.908Z,0.00
2018-01-08T21:23:34.897Z,0.00
2018-01-08T21:24:34.783Z,0.00
2018-01-08T21:25:34.742Z,0.00
2018-01-08T21:26:34.725Z,0.00
2018-01-08T21:27:34.678Z,0.00
2018-01-08T21:28:34.826Z,0.00
2018-01-08T21:29:34.871Z,0.00
2018-01-08T21:30:34.602Z,0.00
2018-01-08T21:31:35.281Z,0.00
2018-01-08T21:32:34.552Z,0.00
2018-01-08T21:33:35.368Z,0.00
2018-01-08T21:34:34.513Z,0.00
2018-01-08T21:35:35.549Z,0.00
2018-01-08T21:36:34.685Z,0.00
2018-01-08T21:37:34.376Z,0.00
2018-01-08T21:38:34.411Z,0.00
2018-01-08T21:39:34.529Z,0.00
2018-01-08T21:40:34.259Z,0.00
2018-01-08T21:41:34.376Z,0.00
2018-01-08T21:42:34.203Z,0.00
2018-01-08T21:43:34.193Z,0.00
2018-01-08T21:44:34.172Z,0.00
2018-01-08T21:45:34.180Z,0.00
2018-01-08T21:46:34.126Z,0.00
2018-01-08T21:47:34.041Z,0.00
2018-01-08T21:48:34.047Z,0.00
2018-01-08T21:49:33.975Z,0.00
2018-01-08T21:50:35.646Z,0.00
2018-01-08T21:51:34.131Z,0.00
2018-01-08T21:52:34.067Z,0.00
2018-01-08T21:53:33.867Z,0.00
2018-01-08T21:54:33.883Z,0.00
2018-01-08T21:55:33.798Z,0.00
2018-01-08T21:56:33.754Z,0.00
2018-01-08T21:57:33.720Z,0.00
2018-01-08T21:58:33.743Z,0.00
2018-01-08T21:59:33.668Z,0.00
2018-01-08T22:00:33.688Z,0.00
2018-01-08T22:01:33.600Z,0.00
2018-01-08T22:02:33.623Z,0.00
2018-01-08T22:03:33.547Z,0.00
2018-01-08T22:04:33.785Z,0.00
2018-01-08T22:05:33.469Z,0.00
2018-01-08T22:06:33.450Z,0.00
2018-01-08T22:07:33.402Z,0.00
2018-01-08T22:08:33.424Z,0.00
2018-01-08T22:09:33.341Z,0.00
2018-01-08T22:10:33.371Z,0.00
2018-01-08T22:11:33.338Z,0.00
2018-01-08T22:12:33.337Z,0.00
2018-01-08T22:13:33.212Z,0.00
2018-01-08T22:14:33.184Z,0.00
2018-01-08T22:15:33.165Z,0.00
2018-01-08T22:16:33.124Z,0.00
2018-01-08T22:17:33.088Z,0.00
2018-01-08T22:18:33.096Z,0.00
2018-01-08T22:19:33.051Z,0.00
2018-01-08T22:20:33.044Z,0.00
2018-01-08T22:21:32.980Z,0.00
2018-01-08T22:22:33.193Z,0.00
2018-01-08T22:23:32.928Z,0.00
2018-01-08T22:24:32.861Z,0.00
2018-01-08T22:25:32.830Z,0.00
2018-01-08T22:26:32.800Z,0.00
2018-01-08T22:27:32.825Z,0.00
2018-01-08T22:28:32.744Z,0.00
2018-01-08T22:29:32.828Z,0.00
2018-01-08T22:30:32.691Z,0.00
2018-01-08T22:31:32.963Z,0.00
2018-01-08T22:32:32.762Z,0.00
2018-01-08T22:33:32.629Z,0.00
2018-01-08T22:34:32.548Z,0.00
2018-01-08T22:35:32.514Z,0.00
2018-01-08T22:36:32.485Z,0.00
2018-01-08T22:37:32.472Z,0.00
2018-01-08T22:38:32.461Z,0.00
2018-01-08T22:39:32.403Z,0.00
2018-01-08T22:40:32.403Z,0.00
2018-01-08T22:41:32.333Z,0.00
2018-01-08T22:42:32.297Z,0.00
2018-01-08T22:43:32.287Z,0.00
2018-01-08T22:44:32.231Z,0.00
2018-01-08T22:45:32.204Z,0.00
2018-01-08T22:46:32.173Z,0.00
2018-01-08T22:47:32.134Z,0.00
2018-01-08T22:48:32.164Z,0.00
2018-01-08T22:49:32.071Z,0.00
2018-01-08T22:50:32.091Z,0.00
2018-01-08T22:51:32.022Z,0.00
2018-01-08T22:52:46.882Z,0.00
2018-01-08T22:53:31.942Z,0.00
2018-01-08T22:54:31.912Z,0.00
2018-01-08T22:55:31.887Z,0.00
2018-01-08T22:56:31.914Z,0.00
2018-01-08T22:57:31.825Z,0.00
2018-01-08T22:58:46.433Z,0.00
2018-01-08T22:59:31.760Z,0.00
2018-01-08T23:00:31.723Z,0.00
2018-01-08T23:01:31.695Z,0.00
2018-01-08T23:02:31.714Z,0.00
2018-01-08T23:03:31.626Z,0.00
2018-01-08T23:04:31.604Z,0.00
2018-01-08T23:05:31.634Z,0.00
2018-01-08T23:06:31.544Z,0.00
2018-01-08T23:07:31.522Z,0.00
2018-01-08T23:08:31.465Z,0.00
2018-01-08T23:09:31.443Z,0.00
2018-01-08T23:10:31.403Z,0.00
2018-01-08T23:11:31.416Z,0.00
2018-01-08T23:12:31.364Z,0.00
2018-01-08T23:13:31.315Z,0.00
2018-01-08T23:14:31.281Z,0.00
2018-01-08T23:15:31.286Z,0.00
2018-01-08T23:16:31.215Z,0.00
2018-01-08T23:17:31.212Z,0.00
2018-01-08T23:18:31.157Z,0.00
2018-01-08T23:19:31.341Z,0.00
2018-01-08T23:20:31.093Z,0.00
2018-01-08T23:21:31.077Z,0.00
2018-01-08T23:22:31.074Z,0.00
2018-01-08T23:23:30.996Z,0.00
2018-01-08T23:24:30.964Z,0.00
2018-01-08T23:25:30.934Z,0.00
2018-01-08T23:26:30.901Z,0.00
2018-01-08T23:27:30.870Z,0.00
2018-01-08T23:28:30.834Z,0.00
2018-01-08T23:29:30.799Z,0.00
2018-01-08T23:30:30.775Z,0.00
2018-01-08T23:31:30.745Z,0.00
2018-01-08T23:32:30.708Z,0.00
2018-01-08T23:33:30.666Z,0.00
2018-01-08T23:34:30.639Z,0.00
2018-01-08T23:35:30.606Z,0.00
2018-01-08T23:36:30.618Z,0.00
2018-01-08T23:37:30.560Z,0.00
2018-01-08T23:38:30.516Z,0.00
2018-01-08T23:39:30.481Z,0.00
2018-01-08T23:40:30.460Z,0.00
2018-01-08T23:41:30.421Z,0.00
2018-01-08T23:42:30.387Z,0.00
2018-01-08T23:43:30.352Z,0.00
2018-01-08T23:44:30.319Z,0.00
2018-01-08T23:45:30.287Z,0.00
2018-01-08T23:46:44.872Z,0.00
2018-01-08T23:47:30.220Z,0.00
2018-01-08T23:48:30.203Z,0.00
2018-01-08T23:49:30.174Z,0.00
2018-01-08T23:50:30.142Z,0.00
2018-01-08T23:51:30.232Z,0.00
2018-01-08T23:52:30.135Z,0.00
2018-01-08T23:53:30.031Z,0.00
2018-01-08T23:54:30.250Z,0.00
2018-01-08T23:55:30.164Z,0.00
2018-01-08T23:56:29.938Z,0.00
2018-01-08T23:57:29.921Z,0.00
2018-01-08T23:58:29.889Z,0.00
2018-01-08T23:59:29.841Z,0.00
